sensor_id;sensor_type;location;lat;lon;timestamp;noise_LAeq;noise_LA_min;noise_LA_max;noise_LA01;noise_LA95
77361;Laerm;66427;51.798;10.954;2023-02-13T00:00:24;27.99;27.12;30.68;;
77361;Laerm;66427;51.798;10.954;2023-02-13T00:02:50;50.52;27.49;68.83;;
77361;Laerm;66427;51.798;10.954;2023-02-13T00:05:21;28.56;27.46;39.60;;
77361;Laerm;66427;51.798;10.954;2023-02-13T00:07:53;28.12;27.38;29.66;;
77361;Laerm;66427;51.798;10.954;2023-02-13T00:10:21;28.07;27.29;30.83;;
77361;Laerm;66427;51.798;10.954;2023-02-13T00:12:47;27.89;27.23;30.26;;
77361;Laerm;66427;51.798;10.954;2023-02-13T00:15:16;28.79;27.38;34.48;;
77361;Laerm;66427;51.798;10.954;2023-02-13T00:17:49;28.49;27.42;32.25;;
77361;Laerm;66427;51.798;10.954;2023-02-13T00:20:22;30.14;27.29;40.15;;
77361;Laerm;66427;51.798;10.954;2023-02-13T00:22:54;28.58;27.44;32.20;;
77361;Laerm;66427;51.798;10.954;2023-02-13T00:25:23;30.02;27.67;38.82;;
77361;Laerm;66427;51.798;10.954;2023-02-13T00:27:52;30.75;28.27;38.00;;
77361;Laerm;66427;51.798;10.954;2023-02-13T00:30:18;29.53;27.84;35.42;;
77361;Laerm;66427;51.798;10.954;2023-02-13T00:32:43;29.96;27.83;41.53;;
77361;Laerm;66427;51.798;10.954;2023-02-13T00:35:13;28.55;27.57;31.43;;
77361;Laerm;66427;51.798;10.954;2023-02-13T00:37:41;41.38;27.56;55.94;;
77361;Laerm;66427;51.798;10.954;2023-02-13T00:40:07;39.95;27.51;57.35;;
77361;Laerm;66427;51.798;10.954;2023-02-13T00:42:38;30.28;27.44;40.44;;
77361;Laerm;66427;51.798;10.954;2023-02-13T00:45:06;28.55;27.66;32.12;;
77361;Laerm;66427;51.798;10.954;2023-02-13T00:47:32;31.27;28.37;44.33;;
77361;Laerm;66427;51.798;10.954;2023-02-13T00:49:58;29.17;28.22;36.64;;
77361;Laerm;66427;51.798;10.954;2023-02-13T00:52:24;28.81;27.79;31.04;;
77361;Laerm;66427;51.798;10.954;2023-02-13T00:54:54;29.04;27.90;35.38;;
77361;Laerm;66427;51.798;10.954;2023-02-13T00:57:27;33.25;28.06;45.19;;
77361;Laerm;66427;51.798;10.954;2023-02-13T00:59:54;28.66;27.96;31.99;;
77361;Laerm;66427;51.798;10.954;2023-02-13T01:02:20;29.33;27.92;32.27;;
77361;Laerm;66427;51.798;10.954;2023-02-13T01:04:49;31.08;28.80;36.66;;
77361;Laerm;66427;51.798;10.954;2023-02-13T01:07:17;28.96;27.86;32.93;;
77361;Laerm;66427;51.798;10.954;2023-02-13T01:09:43;30.43;28.55;36.77;;
77361;Laerm;66427;51.798;10.954;2023-02-13T01:12:12;29.72;28.30;33.04;;
77361;Laerm;66427;51.798;10.954;2023-02-13T01:14:45;29.31;27.76;37.06;;
77361;Laerm;66427;51.798;10.954;2023-02-13T01:17:18;28.78;27.86;31.26;;
77361;Laerm;66427;51.798;10.954;2023-02-13T01:19:50;30.50;27.96;36.89;;
77361;Laerm;66427;51.798;10.954;2023-02-13T01:22:18;32.55;29.69;45.43;;
77361;Laerm;66427;51.798;10.954;2023-02-13T01:24:44;29.03;27.90;35.12;;
77361;Laerm;66427;51.798;10.954;2023-02-13T01:27:10;34.51;27.55;51.79;;
77361;Laerm;66427;51.798;10.954;2023-02-13T01:29:36;28.76;27.56;33.59;;
77361;Laerm;66427;51.798;10.954;2023-02-13T01:32:06;30.01;28.04;36.38;;
77361;Laerm;66427;51.798;10.954;2023-02-13T01:34:39;32.17;28.84;41.44;;
77361;Laerm;66427;51.798;10.954;2023-02-13T01:37:10;29.39;27.69;32.16;;
77361;Laerm;66427;51.798;10.954;2023-02-13T01:39:38;30.38;28.14;34.98;;
77361;Laerm;66427;51.798;10.954;2023-02-13T01:42:04;28.63;27.37;30.85;;
77361;Laerm;66427;51.798;10.954;2023-02-13T01:44:46;29.21;27.74;36.80;;
77361;Laerm;66427;51.798;10.954;2023-02-13T01:47:12;29.96;27.48;40.10;;
77361;Laerm;66427;51.798;10.954;2023-02-13T01:49:39;29.20;27.27;35.18;;
77361;Laerm;66427;51.798;10.954;2023-02-13T01:52:06;29.79;27.40;34.79;;
77361;Laerm;66427;51.798;10.954;2023-02-13T01:54:34;28.44;27.42;32.00;;
77361;Laerm;66427;51.798;10.954;2023-02-13T01:57:05;30.09;27.90;36.96;;
77361;Laerm;66427;51.798;10.954;2023-02-13T01:59:43;28.80;27.55;32.54;;
77361;Laerm;66427;51.798;10.954;2023-02-13T02:02:13;28.22;27.37;29.27;;
77361;Laerm;66427;51.798;10.954;2023-02-13T02:04:39;28.56;27.33;32.32;;
77361;Laerm;66427;51.798;10.954;2023-02-13T02:07:10;27.97;27.28;30.71;;
77361;Laerm;66427;51.798;10.954;2023-02-13T02:09:39;27.96;27.36;29.28;;
77361;Laerm;66427;51.798;10.954;2023-02-13T02:12:07;28.52;27.36;31.87;;
77361;Laerm;66427;51.798;10.954;2023-02-13T02:14:36;28.70;27.36;36.24;;
77361;Laerm;66427;51.798;10.954;2023-02-13T02:17:03;30.39;27.20;36.75;;
77361;Laerm;66427;51.798;10.954;2023-02-13T02:30:40;29.13;27.39;39.48;;
77361;Laerm;66427;51.798;10.954;2023-02-13T02:35:57;30.94;28.43;43.01;;
77361;Laerm;66427;51.798;10.954;2023-02-13T02:38:44;29.33;28.03;32.25;;
77361;Laerm;66427;51.798;10.954;2023-02-13T02:41:40;29.99;27.97;37.24;;
77361;Laerm;66427;51.798;10.954;2023-02-13T02:44:06;30.51;27.85;43.56;;
77361;Laerm;66427;51.798;10.954;2023-02-13T02:46:36;36.50;27.64;56.09;;
77361;Laerm;66427;51.798;10.954;2023-02-13T02:49:04;29.76;28.12;33.38;;
77361;Laerm;66427;51.798;10.954;2023-02-13T02:52:05;32.48;28.11;45.16;;
77361;Laerm;66427;51.798;10.954;2023-02-13T02:54:25;29.55;27.98;34.21;;
77361;Laerm;66427;51.798;10.954;2023-02-13T02:56:55;28.58;27.74;32.40;;
77361;Laerm;66427;51.798;10.954;2023-02-13T02:59:22;29.76;28.22;32.93;;
77361;Laerm;66427;51.798;10.954;2023-02-13T03:01:53;30.78;28.11;36.87;;
77361;Laerm;66427;51.798;10.954;2023-02-13T03:04:27;29.72;27.96;38.56;;
77361;Laerm;66427;51.798;10.954;2023-02-13T03:06:55;30.89;28.04;39.59;;
77361;Laerm;66427;51.798;10.954;2023-02-13T03:09:27;28.88;27.72;33.87;;
77361;Laerm;66427;51.798;10.954;2023-02-13T03:11:56;28.79;27.89;31.59;;
77361;Laerm;66427;51.798;10.954;2023-02-13T03:14:24;31.75;28.44;37.03;;
77361;Laerm;66427;51.798;10.954;2023-02-13T03:16:51;31.23;28.24;38.42;;
77361;Laerm;66427;51.798;10.954;2023-02-13T03:19:21;28.97;27.74;31.80;;
77361;Laerm;66427;51.798;10.954;2023-02-13T03:21:56;48.20;28.31;63.33;;
77361;Laerm;66427;51.798;10.954;2023-02-13T03:27:16;30.61;28.56;38.89;;
77361;Laerm;66427;51.798;10.954;2023-02-13T03:29:48;31.37;28.99;44.29;;
77361;Laerm;66427;51.798;10.954;2023-02-13T03:35:14;32.17;29.15;51.10;;
77361;Laerm;66427;51.798;10.954;2023-02-13T03:37:44;32.71;29.83;47.22;;
77361;Laerm;66427;51.798;10.954;2023-02-13T03:40:22;33.59;30.56;40.27;;
77361;Laerm;66427;51.798;10.954;2023-02-13T03:42:52;49.81;31.50;65.82;;
77361;Laerm;66427;51.798;10.954;2023-02-13T03:45:25;33.11;29.99;42.74;;
77361;Laerm;66427;51.798;10.954;2023-02-13T03:48:00;32.49;30.60;38.11;;
77361;Laerm;66427;51.798;10.954;2023-02-13T03:50:29;32.62;29.55;38.52;;
77361;Laerm;66427;51.798;10.954;2023-02-13T03:52:59;32.44;30.45;37.52;;
77361;Laerm;66427;51.798;10.954;2023-02-13T03:55:32;34.92;31.02;42.39;;
77361;Laerm;66427;51.798;10.954;2023-02-13T03:58:05;45.71;30.46;60.87;;
77361;Laerm;66427;51.798;10.954;2023-02-13T04:00:34;31.73;30.35;35.44;;
77361;Laerm;66427;51.798;10.954;2023-02-13T04:05:48;39.50;31.97;58.16;;
77361;Laerm;66427;51.798;10.954;2023-02-13T04:08:15;38.02;30.94;46.34;;
77361;Laerm;66427;51.798;10.954;2023-02-13T04:10:44;33.90;30.47;44.71;;
77361;Laerm;66427;51.798;10.954;2023-02-13T04:13:19;35.17;31.04;41.11;;
77361;Laerm;66427;51.798;10.954;2023-02-13T04:15:52;36.74;31.87;51.34;;
77361;Laerm;66427;51.798;10.954;2023-02-13T04:18:24;39.06;32.12;50.58;;
77361;Laerm;66427;51.798;10.954;2023-02-13T04:20:53;38.99;32.81;54.05;;
77361;Laerm;66427;51.798;10.954;2023-02-13T04:23:19;52.70;33.48;65.20;;
77361;Laerm;66427;51.798;10.954;2023-02-13T04:25:46;42.95;32.15;59.63;;
77361;Laerm;66427;51.798;10.954;2023-02-13T04:28:13;49.83;32.31;65.81;;
77361;Laerm;66427;51.798;10.954;2023-02-13T04:30:42;37.21;32.84;48.50;;
77361;Laerm;66427;51.798;10.954;2023-02-13T04:33:09;53.46;33.37;70.82;;
77361;Laerm;66427;51.798;10.954;2023-02-13T04:35:35;49.45;33.26;65.84;;
77361;Laerm;66427;51.798;10.954;2023-02-13T04:38:06;37.10;33.11;45.49;;
77361;Laerm;66427;51.798;10.954;2023-02-13T04:40:34;48.60;34.63;64.46;;
77361;Laerm;66427;51.798;10.954;2023-02-13T04:43:00;36.51;33.23;46.29;;
77361;Laerm;66427;51.798;10.954;2023-02-13T04:45:29;50.28;34.23;63.01;;
77361;Laerm;66427;51.798;10.954;2023-02-13T04:47:57;47.71;32.76;63.22;;
77361;Laerm;66427;51.798;10.954;2023-02-13T04:50:23;52.03;32.83;66.29;;
77361;Laerm;66427;51.798;10.954;2023-02-13T04:52:55;38.72;33.31;60.53;;
77361;Laerm;66427;51.798;10.954;2023-02-13T04:55:26;55.89;34.47;68.07;;
77361;Laerm;66427;51.798;10.954;2023-02-13T04:57:54;52.22;33.56;65.65;;
77361;Laerm;66427;51.798;10.954;2023-02-13T05:00:24;36.62;33.26;47.95;;
77361;Laerm;66427;51.798;10.954;2023-02-13T05:03:08;53.56;33.60;68.03;;
77361;Laerm;66427;51.798;10.954;2023-02-13T05:05:37;37.07;32.92;52.96;;
77361;Laerm;66427;51.798;10.954;2023-02-13T05:08:03;50.57;33.65;66.43;;
77361;Laerm;66427;51.798;10.954;2023-02-13T05:10:34;51.74;35.37;66.00;;
77361;Laerm;66427;51.798;10.954;2023-02-13T05:13:02;37.83;34.43;48.40;;
77361;Laerm;66427;51.798;10.954;2023-02-13T05:15:28;49.48;33.55;64.41;;
77361;Laerm;66427;51.798;10.954;2023-02-13T05:17:54;54.69;34.57;69.53;;
77361;Laerm;66427;51.798;10.954;2023-02-13T05:20:20;45.36;34.16;59.99;;
77361;Laerm;66427;51.798;10.954;2023-02-13T05:22:47;54.81;33.55;68.04;;
77361;Laerm;66427;51.798;10.954;2023-02-13T05:25:16;53.81;34.45;66.01;;
77361;Laerm;66427;51.798;10.954;2023-02-13T05:27:44;52.55;35.41;67.68;;
77361;Laerm;66427;51.798;10.954;2023-02-13T05:30:10;41.77;34.79;58.73;;
77361;Laerm;66427;51.798;10.954;2023-02-13T05:32:36;39.33;35.50;48.11;;
77361;Laerm;66427;51.798;10.954;2023-02-13T05:35:02;57.12;38.76;70.09;;
77361;Laerm;66427;51.798;10.954;2023-02-13T05:37:33;51.07;34.92;67.27;;
77361;Laerm;66427;51.798;10.954;2023-02-13T05:40:01;53.91;35.74;66.29;;
77361;Laerm;66427;51.798;10.954;2023-02-13T05:42:27;50.61;35.28;68.84;;
77361;Laerm;66427;51.798;10.954;2023-02-13T05:44:53;57.69;35.34;69.75;;
77361;Laerm;66427;51.798;10.954;2023-02-13T05:47:19;49.68;37.19;63.56;;
77361;Laerm;66427;51.798;10.954;2023-02-13T05:49:45;52.96;37.05;69.16;;
77361;Laerm;66427;51.798;10.954;2023-02-13T05:52:11;44.50;35.76;58.95;;
77361;Laerm;66427;51.798;10.954;2023-02-13T05:54:38;53.53;36.39;69.59;;
77361;Laerm;66427;51.798;10.954;2023-02-13T05:57:03;53.61;36.84;68.72;;
77361;Laerm;66427;51.798;10.954;2023-02-13T05:59:29;51.15;35.98;64.70;;
77361;Laerm;66427;51.798;10.954;2023-02-13T06:01:58;54.76;36.66;69.24;;
77361;Laerm;66427;51.798;10.954;2023-02-13T06:04:26;56.91;36.59;67.82;;
77361;Laerm;66427;51.798;10.954;2023-02-13T06:06:52;56.20;37.15;66.64;;
77361;Laerm;66427;51.798;10.954;2023-02-13T06:09:21;56.30;37.57;65.16;;
77361;Laerm;66427;51.798;10.954;2023-02-13T06:11:52;57.80;37.43;71.23;;
77361;Laerm;66427;51.798;10.954;2023-02-13T06:14:20;54.37;36.84;67.69;;
77361;Laerm;66427;51.798;10.954;2023-02-13T06:16:46;55.28;37.22;66.25;;
77361;Laerm;66427;51.798;10.954;2023-02-13T06:19:12;52.67;37.78;63.61;;
77361;Laerm;66427;51.798;10.954;2023-02-13T06:21:38;58.22;36.89;71.37;;
77361;Laerm;66427;51.798;10.954;2023-02-13T06:24:04;56.44;37.00;69.34;;
77361;Laerm;66427;51.798;10.954;2023-02-13T06:26:33;56.68;37.80;67.68;;
77361;Laerm;66427;51.798;10.954;2023-02-13T06:29:04;58.26;41.67;66.61;;
77361;Laerm;66427;51.798;10.954;2023-02-13T06:31:32;57.27;38.91;67.87;;
77361;Laerm;66427;51.798;10.954;2023-02-13T06:33:58;60.12;40.17;74.80;;
77361;Laerm;66427;51.798;10.954;2023-02-13T06:36:24;55.74;35.20;68.34;;
77361;Laerm;66427;51.798;10.954;2023-02-13T06:38:50;59.04;38.51;74.19;;
77361;Laerm;66427;51.798;10.954;2023-02-13T06:41:17;49.83;36.32;69.16;;
77361;Laerm;66427;51.798;10.954;2023-02-13T06:43:43;48.93;36.90;64.42;;
77361;Laerm;66427;51.798;10.954;2023-02-13T06:46:09;56.88;37.74;75.09;;
77361;Laerm;66427;51.798;10.954;2023-02-13T06:48:35;52.02;36.41;64.94;;
77361;Laerm;66427;51.798;10.954;2023-02-13T06:51:00;53.26;35.96;66.61;;
77361;Laerm;66427;51.798;10.954;2023-02-13T06:53:31;49.38;36.90;65.46;;
77361;Laerm;66427;51.798;10.954;2023-02-13T06:56:01;53.47;36.83;66.19;;
77361;Laerm;66427;51.798;10.954;2023-02-13T06:58:27;55.60;36.37;66.45;;
77361;Laerm;66427;51.798;10.954;2023-02-13T07:00:53;47.12;34.46;61.16;;
77361;Laerm;66427;51.798;10.954;2023-02-13T07:03:19;52.21;35.12;67.51;;
77361;Laerm;66427;51.798;10.954;2023-02-13T07:05:49;56.55;35.41;69.77;;
77361;Laerm;66427;51.798;10.954;2023-02-13T07:08:17;56.57;36.37;69.50;;
77361;Laerm;66427;51.798;10.954;2023-02-13T07:10:43;52.39;34.86;64.26;;
77361;Laerm;66427;51.798;10.954;2023-02-13T07:13:08;53.61;35.51;64.19;;
77361;Laerm;66427;51.798;10.954;2023-02-13T07:15:35;59.76;39.68;76.65;;
77361;Laerm;66427;51.798;10.954;2023-02-13T07:18:05;56.44;35.23;68.59;;
77361;Laerm;66427;51.798;10.954;2023-02-13T07:20:34;54.65;37.25;66.54;;
77361;Laerm;66427;51.798;10.954;2023-02-13T07:23:01;54.48;37.24;68.43;;
77361;Laerm;66427;51.798;10.954;2023-02-13T07:25:28;40.41;35.34;51.74;;
77361;Laerm;66427;51.798;10.954;2023-02-13T07:27:54;56.81;35.06;67.70;;
77361;Laerm;66427;51.798;10.954;2023-02-13T07:30:25;39.41;33.44;54.34;;
77361;Laerm;66427;51.798;10.954;2023-02-13T07:32:53;48.73;34.32;63.81;;
77361;Laerm;66427;51.798;10.954;2023-02-13T07:35:22;56.44;34.36;75.07;;
77361;Laerm;66427;51.798;10.954;2023-02-13T07:37:52;49.82;33.22;62.98;;
77361;Laerm;66427;51.798;10.954;2023-02-13T07:40:23;50.63;35.25;63.81;;
77361;Laerm;66427;51.798;10.954;2023-02-13T07:42:54;53.15;34.11;67.34;;
77361;Laerm;66427;51.798;10.954;2023-02-13T07:45:22;54.60;33.91;72.45;;
77361;Laerm;66427;51.798;10.954;2023-02-13T07:47:48;56.61;32.32;69.36;;
77361;Laerm;66427;51.798;10.954;2023-02-13T07:50:15;62.46;33.64;79.24;;
77361;Laerm;66427;51.798;10.954;2023-02-13T07:52:41;54.54;35.57;65.46;;
77361;Laerm;66427;51.798;10.954;2023-02-13T07:55:11;54.57;36.12;64.50;;
77361;Laerm;66427;51.798;10.954;2023-02-13T07:57:39;53.19;35.29;69.13;;
77361;Laerm;66427;51.798;10.954;2023-02-13T08:00:05;53.19;35.26;69.72;;
77361;Laerm;66427;51.798;10.954;2023-02-13T08:02:30;57.13;35.68;66.69;;
77361;Laerm;66427;51.798;10.954;2023-02-13T08:04:56;56.38;38.88;70.29;;
77361;Laerm;66427;51.798;10.954;2023-02-13T08:07:25;57.47;36.48;72.82;;
77361;Laerm;66427;51.798;10.954;2023-02-13T08:09:54;52.83;35.77;67.70;;
77361;Laerm;66427;51.798;10.954;2023-02-13T08:12:20;53.97;35.59;67.90;;
77361;Laerm;66427;51.798;10.954;2023-02-13T08:14:52;57.61;38.70;68.83;;
77361;Laerm;66427;51.798;10.954;2023-02-13T08:17:20;48.81;35.65;63.80;;
77361;Laerm;66427;51.798;10.954;2023-02-13T08:19:46;56.50;35.55;71.72;;
77361;Laerm;66427;51.798;10.954;2023-02-13T08:22:15;57.96;37.19;70.87;;
77361;Laerm;66427;51.798;10.954;2023-02-13T08:24:43;56.24;36.15;67.06;;
77361;Laerm;66427;51.798;10.954;2023-02-13T08:27:12;51.78;36.79;62.94;;
77361;Laerm;66427;51.798;10.954;2023-02-13T08:29:42;56.97;35.66;69.55;;
77361;Laerm;66427;51.798;10.954;2023-02-13T08:32:10;60.02;35.13;75.16;;
77361;Laerm;66427;51.798;10.954;2023-02-13T08:34:36;57.14;36.62;71.69;;
77361;Laerm;66427;51.798;10.954;2023-02-13T08:37:02;55.76;36.82;69.77;;
77361;Laerm;66427;51.798;10.954;2023-02-13T08:39:28;53.52;37.09;77.24;;
77361;Laerm;66427;51.798;10.954;2023-02-13T08:41:56;55.85;39.62;65.15;;
77361;Laerm;66427;51.798;10.954;2023-02-13T08:44:25;52.06;39.43;64.23;;
77361;Laerm;66427;51.798;10.954;2023-02-13T08:46:51;55.67;39.20;64.84;;
77361;Laerm;66427;51.798;10.954;2023-02-13T08:49:22;57.63;38.01;68.94;;
77361;Laerm;66427;51.798;10.954;2023-02-13T08:51:50;53.03;36.91;70.44;;
77361;Laerm;66427;51.798;10.954;2023-02-13T08:54:15;57.16;44.31;65.92;;
77361;Laerm;66427;51.798;10.954;2023-02-13T08:56:41;54.82;37.79;71.09;;
77361;Laerm;66427;51.798;10.954;2023-02-13T08:59:08;55.12;37.25;65.10;;
77361;Laerm;66427;51.798;10.954;2023-02-13T09:01:33;55.30;37.37;69.54;;
77361;Laerm;66427;51.798;10.954;2023-02-13T09:04:00;52.05;35.64;65.22;;
77361;Laerm;66427;51.798;10.954;2023-02-13T09:06:27;53.84;38.16;64.74;;
77361;Laerm;66427;51.798;10.954;2023-02-13T09:08:53;57.23;39.33;69.59;;
77361;Laerm;66427;51.798;10.954;2023-02-13T09:11:19;57.41;37.42;66.84;;
77361;Laerm;66427;51.798;10.954;2023-02-13T09:13:45;53.99;35.07;65.37;;
77361;Laerm;66427;51.798;10.954;2023-02-13T09:16:11;53.79;37.50;66.60;;
77361;Laerm;66427;51.798;10.954;2023-02-13T09:18:37;53.63;35.63;68.51;;
77361;Laerm;66427;51.798;10.954;2023-02-13T09:21:05;58.24;39.10;68.27;;
77361;Laerm;66427;51.798;10.954;2023-02-13T09:23:36;53.87;36.46;65.40;;
77361;Laerm;66427;51.798;10.954;2023-02-13T09:26:08;51.13;35.45;63.90;;
77361;Laerm;66427;51.798;10.954;2023-02-13T09:28:35;54.64;35.16;65.44;;
77361;Laerm;66427;51.798;10.954;2023-02-13T09:31:13;56.89;35.19;69.79;;
77361;Laerm;66427;51.798;10.954;2023-02-13T09:33:41;53.97;36.09;66.48;;
77361;Laerm;66427;51.798;10.954;2023-02-13T09:36:08;57.17;34.95;67.34;;
77361;Laerm;66427;51.798;10.954;2023-02-13T09:38:40;66.75;40.65;78.95;;
77361;Laerm;66427;51.798;10.954;2023-02-13T09:41:14;54.55;39.42;67.77;;
77361;Laerm;66427;51.798;10.954;2023-02-13T09:43:50;54.09;40.60;65.83;;
77361;Laerm;66427;51.798;10.954;2023-02-13T09:46:22;57.06;39.92;68.25;;
77361;Laerm;66427;51.798;10.954;2023-02-13T09:48:51;57.05;38.01;69.26;;
77361;Laerm;66427;51.798;10.954;2023-02-13T09:51:19;53.15;37.92;65.28;;
77361;Laerm;66427;51.798;10.954;2023-02-13T09:53:50;90.70;39.15;110.45;;
77361;Laerm;66427;51.798;10.954;2023-02-13T09:56:20;61.75;36.52;77.17;;
77361;Laerm;66427;51.798;10.954;2023-02-13T09:58:54;62.99;37.53;80.50;;
77361;Laerm;66427;51.798;10.954;2023-02-13T10:01:38;56.89;37.78;67.25;;
77361;Laerm;66427;51.798;10.954;2023-02-13T10:09:44;50.21;36.22;63.18;;
77361;Laerm;66427;51.798;10.954;2023-02-13T10:12:18;56.12;36.64;73.33;;
77361;Laerm;66427;51.798;10.954;2023-02-13T10:15:02;55.00;36.58;66.02;;
77361;Laerm;66427;51.798;10.954;2023-02-13T10:17:34;56.22;36.43;69.31;;
77361;Laerm;66427;51.798;10.954;2023-02-13T10:20:02;60.41;37.75;73.00;;
77361;Laerm;66427;51.798;10.954;2023-02-13T10:22:34;56.73;38.08;68.21;;
77361;Laerm;66427;51.798;10.954;2023-02-13T10:25:06;54.25;38.07;66.64;;
77361;Laerm;66427;51.798;10.954;2023-02-13T10:27:37;55.39;37.53;69.63;;
77361;Laerm;66427;51.798;10.954;2023-02-13T10:32:44;54.14;37.36;67.12;;
77361;Laerm;66427;51.798;10.954;2023-02-13T10:35:20;56.89;37.21;70.17;;
77361;Laerm;66427;51.798;10.954;2023-02-13T10:37:46;55.67;38.14;70.89;;
77361;Laerm;66427;51.798;10.954;2023-02-13T10:40:13;53.24;38.80;66.81;;
77361;Laerm;66427;51.798;10.954;2023-02-13T10:42:45;50.25;37.58;62.21;;
77361;Laerm;66427;51.798;10.954;2023-02-13T10:48:12;57.40;41.56;69.59;;
77361;Laerm;66427;51.798;10.954;2023-02-13T10:50:49;54.09;37.53;68.60;;
77361;Laerm;66427;51.798;10.954;2023-02-13T10:53:43;56.93;38.36;68.00;;
77361;Laerm;66427;51.798;10.954;2023-02-13T10:56:22;58.47;36.88;70.18;;
77361;Laerm;66427;51.798;10.954;2023-02-13T11:01:19;56.19;37.56;74.59;;
77361;Laerm;66427;51.798;10.954;2023-02-13T11:03:48;56.40;36.60;67.72;;
77361;Laerm;66427;51.798;10.954;2023-02-13T11:06:23;52.45;35.31;68.35;;
77361;Laerm;66427;51.798;10.954;2023-02-13T11:08:55;48.03;34.27;63.89;;
77361;Laerm;66427;51.798;10.954;2023-02-13T11:16:39;47.61;34.68;63.16;;
77361;Laerm;66427;51.798;10.954;2023-02-13T11:19:05;54.19;35.33;64.51;;
77361;Laerm;66427;51.798;10.954;2023-02-13T11:21:34;55.15;37.20;67.26;;
77361;Laerm;66427;51.798;10.954;2023-02-13T11:24:01;48.41;34.36;63.43;;
77361;Laerm;66427;51.798;10.954;2023-02-13T11:26:34;52.86;35.36;66.34;;
77361;Laerm;66427;51.798;10.954;2023-02-13T11:29:13;49.52;32.79;67.00;;
77361;Laerm;66427;51.798;10.954;2023-02-13T11:31:42;51.49;35.15;64.28;;
77361;Laerm;66427;51.798;10.954;2023-02-13T11:36:46;50.13;34.31;63.68;;
77361;Laerm;66427;51.798;10.954;2023-02-13T11:39:19;51.87;34.04;68.53;;
77361;Laerm;66427;51.798;10.954;2023-02-13T11:41:46;52.24;35.10;66.06;;
77361;Laerm;66427;51.798;10.954;2023-02-13T11:46:48;54.30;36.30;64.44;;
77361;Laerm;66427;51.798;10.954;2023-02-13T11:49:24;55.90;37.31;66.91;;
77361;Laerm;66427;51.798;10.954;2023-02-13T11:51:51;54.09;36.52;64.57;;
77361;Laerm;66427;51.798;10.954;2023-02-13T11:54:33;54.81;37.16;67.04;;
77361;Laerm;66427;51.798;10.954;2023-02-13T11:57:01;52.10;36.19;66.75;;
77361;Laerm;66427;51.798;10.954;2023-02-13T11:59:29;49.41;35.75;65.42;;
77361;Laerm;66427;51.798;10.954;2023-02-13T12:02:08;56.82;34.90;68.71;;
77361;Laerm;66427;51.798;10.954;2023-02-13T12:04:46;54.66;34.26;67.56;;
77361;Laerm;66427;51.798;10.954;2023-02-13T12:09:41;54.08;35.36;69.35;;
77361;Laerm;66427;51.798;10.954;2023-02-13T12:12:15;55.79;33.67;71.18;;
77361;Laerm;66427;51.798;10.954;2023-02-13T12:14:47;48.63;34.38;61.04;;
77361;Laerm;66427;51.798;10.954;2023-02-13T12:17:19;53.46;33.85;64.91;;
77361;Laerm;66427;51.798;10.954;2023-02-13T12:19:49;60.17;38.25;74.92;;
77361;Laerm;66427;51.798;10.954;2023-02-13T12:24:55;63.52;39.89;77.78;;
77361;Laerm;66427;51.798;10.954;2023-02-13T12:32:41;54.20;35.79;68.90;;
77361;Laerm;66427;51.798;10.954;2023-02-13T12:38:01;56.06;37.23;68.34;;
77361;Laerm;66427;51.798;10.954;2023-02-13T12:45:52;62.15;51.30;69.39;;
77361;Laerm;66427;51.798;10.954;2023-02-13T12:48:27;62.64;40.74;76.60;;
77361;Laerm;66427;51.798;10.954;2023-02-13T12:51:01;54.98;39.55;68.55;;
77361;Laerm;66427;51.798;10.954;2023-02-13T12:53:41;58.50;38.40;74.81;;
77361;Laerm;66427;51.798;10.954;2023-02-13T12:56:14;53.83;37.62;65.67;;
77361;Laerm;66427;51.798;10.954;2023-02-13T12:58:56;53.61;36.58;71.01;;
77361;Laerm;66427;51.798;10.954;2023-02-13T13:06:43;49.29;37.34;62.38;;
77361;Laerm;66427;51.798;10.954;2023-02-13T13:09:23;55.70;37.40;71.90;;
77361;Laerm;66427;51.798;10.954;2023-02-13T13:12:01;52.96;37.70;67.22;;
77361;Laerm;66427;51.798;10.954;2023-02-13T13:17:19;53.54;38.10;65.34;;
77361;Laerm;66427;51.798;10.954;2023-02-13T13:20:02;54.18;36.81;66.52;;
77361;Laerm;66427;51.798;10.954;2023-02-13T13:22:38;47.89;36.23;64.38;;
77361;Laerm;66427;51.798;10.954;2023-02-13T13:25:15;53.97;34.05;72.33;;
77361;Laerm;66427;51.798;10.954;2023-02-13T13:27:49;49.83;35.16;64.61;;
77361;Laerm;66427;51.798;10.954;2023-02-13T13:30:28;59.04;37.31;75.12;;
77361;Laerm;66427;51.798;10.954;2023-02-13T13:32:59;56.97;38.10;66.41;;
77361;Laerm;66427;51.798;10.954;2023-02-13T13:35:26;58.99;38.80;74.98;;
77361;Laerm;66427;51.798;10.954;2023-02-13T13:38:12;52.02;39.00;66.37;;
77361;Laerm;66427;51.798;10.954;2023-02-13T13:40:44;54.55;37.51;65.41;;
77361;Laerm;66427;51.798;10.954;2023-02-13T13:43:30;55.05;38.34;65.49;;
77361;Laerm;66427;51.798;10.954;2023-02-13T13:51:00;55.07;37.71;69.09;;
77361;Laerm;66427;51.798;10.954;2023-02-13T13:53:27;60.38;36.44;73.70;;
77361;Laerm;66427;51.798;10.954;2023-02-13T13:58:38;51.00;36.48;64.94;;
77361;Laerm;66427;51.798;10.954;2023-02-13T14:03:49;53.94;37.76;66.16;;
77361;Laerm;66427;51.798;10.954;2023-02-13T14:06:16;52.56;37.96;65.09;;
77361;Laerm;66427;51.798;10.954;2023-02-13T14:13:56;56.58;38.49;66.14;;
77361;Laerm;66427;51.798;10.954;2023-02-13T14:19:25;53.00;35.46;69.08;;
77361;Laerm;66427;51.798;10.954;2023-02-13T14:21:54;54.93;37.16;69.27;;
77361;Laerm;66427;51.798;10.954;2023-02-13T14:24:48;55.89;39.38;72.20;;
77361;Laerm;66427;51.798;10.954;2023-02-13T14:27:21;60.12;41.61;74.04;;
77361;Laerm;66427;51.798;10.954;2023-02-13T14:29:47;50.22;41.02;64.36;;
77361;Laerm;66427;51.798;10.954;2023-02-13T14:34:50;60.45;43.53;74.38;;
77361;Laerm;66427;51.798;10.954;2023-02-13T14:37:19;53.10;38.22;65.38;;
77361;Laerm;66427;51.798;10.954;2023-02-13T14:42:30;54.55;39.57;63.52;;
77361;Laerm;66427;51.798;10.954;2023-02-13T14:44:57;58.53;40.38;73.02;;
77361;Laerm;66427;51.798;10.954;2023-02-13T14:47:30;54.37;39.30;67.27;;
77361;Laerm;66427;51.798;10.954;2023-02-13T14:50:00;56.42;38.71;67.47;;
77361;Laerm;66427;51.798;10.954;2023-02-13T14:52:28;57.85;39.41;72.17;;
77361;Laerm;66427;51.798;10.954;2023-02-13T14:55:02;56.65;39.10;69.32;;
77361;Laerm;66427;51.798;10.954;2023-02-13T14:57:38;56.44;39.78;71.24;;
77361;Laerm;66427;51.798;10.954;2023-02-13T15:00:08;56.06;40.24;65.49;;
77361;Laerm;66427;51.798;10.954;2023-02-13T15:02:45;57.79;38.86;71.71;;
77361;Laerm;66427;51.798;10.954;2023-02-13T15:05:15;59.70;35.75;71.24;;
77361;Laerm;66427;51.798;10.954;2023-02-13T15:07:49;54.61;42.40;67.43;;
77361;Laerm;66427;51.798;10.954;2023-02-13T15:13:00;55.89;38.24;66.19;;
77361;Laerm;66427;51.798;10.954;2023-02-13T15:15:30;56.38;40.32;66.40;;
77361;Laerm;66427;51.798;10.954;2023-02-13T15:17:58;56.75;40.26;68.22;;
77361;Laerm;66427;51.798;10.954;2023-02-13T15:20:31;57.30;40.05;70.04;;
77361;Laerm;66427;51.798;10.954;2023-02-13T15:22:58;58.15;42.13;68.42;;
77361;Laerm;66427;51.798;10.954;2023-02-13T15:25:37;57.98;40.26;67.33;;